Карточка аэропорта UOOO

Внимание!
Информация на этой странице в стадии наполнения.
Если вы не увидели какой-то информации, или заметили неточность - пожалуйста сообщите нам!
Спасибо!
Команда RU-STAFF
Название аэропортаАлыкель
Название аэропорта (англ.)Alykel
Превышение574 ft. (175 m.)
Координаты69°19.02', 87°19.02'
Высота перехода1200m
Эшелон переходаQFE>744:FL60;744>QFE>717:FL70;717>QFE:FL80
Коды ответчика5401-5427
Зона ОрВДКрасноярск РПИ (UNKL)
Данные METARUOOO 070700Z 27008MPS 0800 R19/1200D SN BLSN OVC006 M07/M07 Q0999 R19/491030 NOSIG RMK QFE733/0977
Проноз погоды (TAF)UOOO 070448Z 0706/0806 26006G12MPS 0800 SN BLSN OVC011 TEMPO 0706/0715 0300 +SN BLSN OVC005 BECMG 0712/0714 02006G12MPS BECMG 0715/0719 6000 -SN BLSN OVC016 TEMPO 0719/0803 2200 -SN BLSN SCT005 OVC011
NOTAMshow/hide NOTAM
AWOS   TABLE

Информация о ВПП

ВПП Длина ВПП (м.) Покрытие Курс ВПП Частота ILS
013430Бетон13109.5
193430Бетон193110.3

Диспетчерские позиции

Позывной Наименование органа УВД Частота
UOOO_APPНорильск - Круг120.400
UOOO_GNDНорильск - Руление121.700
UOOO_TWRНорильск - Старт118.300



Спутниковое изображение